createdAt,value
2022-12-01T00:01:29.151Z,11.45
2022-12-01T00:03:55.784Z,11.40
2022-12-01T00:06:24.853Z,10.32
2022-12-01T00:09:16.443Z,11.07
2022-12-01T00:11:47.164Z,11.15
2022-12-01T00:14:14.499Z,10.45
2022-12-01T00:16:41.337Z,11.00
2022-12-01T00:19:08.711Z,10.30
2022-12-01T00:21:37.513Z,10.95
2022-12-01T00:24:06.817Z,11.05
2022-12-01T00:26:35.623Z,10.07
2022-12-01T00:29:07.051Z,10.38
2022-12-01T00:31:36.448Z,10.75
2022-12-01T00:34:06.951Z,10.77
2022-12-01T00:36:39.865Z,11.00
2022-12-01T00:39:08.697Z,10.73
2022-12-01T00:41:35.425Z,11.35
2022-12-01T00:44:04.531Z,11.05
2022-12-01T00:46:31.250Z,10.90
2022-12-01T00:49:00.151Z,10.90
2022-12-01T00:51:29.075Z,11.02
2022-12-01T00:53:58.271Z,10.55
2022-12-01T00:56:27.208Z,11.23
2022-12-01T00:58:56.296Z,10.98
2022-12-01T01:01:23.125Z,10.55
2022-12-01T01:03:49.895Z,11.15
2022-12-01T01:06:16.550Z,11.75
2022-12-01T01:08:43.273Z,10.90
2022-12-01T01:11:10.205Z,11.85
2022-12-01T01:13:39.986Z,11.95
2022-12-01T01:16:19.053Z,11.65
2022-12-01T01:18:48.909Z,11.57
2022-12-01T01:21:18.457Z,12.02
2022-12-01T01:23:50.430Z,11.82
2022-12-01T01:26:18.574Z,11.77
2022-12-01T01:28:45.959Z,12.15
2022-12-01T01:31:16.262Z,12.27
2022-12-01T01:33:45.239Z,12.32
2022-12-01T01:36:12.531Z,12.23
2022-12-01T01:38:39.330Z,12.63
2022-12-01T01:41:09.704Z,12.55
2022-12-01T01:43:55.278Z,12.68
2022-12-01T01:46:23.429Z,14.18
2022-12-01T01:48:54.693Z,13.35
2022-12-01T01:51:29.550Z,13.93
2022-12-01T01:54:01.239Z,13.77
2022-12-01T01:56:31.276Z,14.63
2022-12-01T01:58:59.185Z,14.45
2022-12-01T02:01:25.920Z,14.45
2022-12-01T02:03:54.643Z,14.75
2022-12-01T02:06:25.330Z,14.65
2022-12-01T02:08:52.205Z,15.68
2022-12-01T02:11:28.138Z,16.90
2022-12-01T02:14:00.805Z,16.38
2022-12-01T02:16:34.534Z,16.55
2022-12-01T02:19:22.657Z,17.17
2022-12-01T02:22:12.957Z,17.55
2022-12-01T02:25:06.944Z,18.15
2022-12-01T02:27:33.535Z,17.85
2022-12-01T02:30:10.827Z,17.67
2022-12-01T02:33:04.774Z,18.77
2022-12-01T02:35:46.195Z,18.23
2022-12-01T02:38:27.036Z,17.02
2022-12-01T02:41:16.637Z,17.80
2022-12-01T02:43:55.741Z,18.83
2022-12-01T02:46:38.248Z,17.13
2022-12-01T02:49:11.702Z,18.08
2022-12-01T02:51:41.858Z,18.33
2022-12-01T02:54:12.639Z,17.27
2022-12-01T02:56:44.021Z,16.92
2022-12-01T02:59:14.916Z,18.95
2022-12-01T03:01:56.456Z,17.67
2022-12-01T03:04:35.471Z,17.38
2022-12-01T03:07:20.773Z,17.73
2022-12-01T03:09:52.639Z,18.57
2022-12-01T03:12:28.601Z,18.85
2022-12-01T03:14:55.610Z,18.13
2022-12-01T03:17:28.761Z,18.23
2022-12-01T03:20:11.667Z,17.92
2022-12-01T03:22:48.170Z,16.80
2022-12-01T03:25:17.534Z,17.40
2022-12-01T03:28:13.860Z,17.17
2022-12-01T03:30:39.499Z,18.08
2022-12-01T03:33:34.854Z,17.13
2022-12-01T03:36:19.489Z,19.77
2022-12-01T03:38:59.714Z,19.35
2022-12-01T03:41:36.522Z,20.52
2022-12-01T03:44:18.639Z,19.38
2022-12-01T03:46:58.474Z,19.48
2022-12-01T03:49:25.756Z,20.17
2022-12-01T03:52:19.473Z,20.13
2022-12-01T03:54:58.563Z,21.10
2022-12-01T03:58:01.586Z,21.63
2022-12-01T04:00:29.490Z,21.10
2022-12-01T04:03:04.783Z,22.40
2022-12-01T04:05:37.189Z,20.48
2022-12-01T04:08:08.738Z,21.75
2022-12-01T04:10:37.889Z,22.42
2022-12-01T04:13:11.955Z,20.17
2022-12-01T04:15:38.741Z,20.77
2022-12-01T04:18:07.976Z,22.45
2022-12-01T04:20:37.201Z,24.90
2022-12-01T04:23:03.910Z,22.25
2022-12-01T04:25:30.615Z,22.88
2022-12-01T04:27:59.485Z,24.20
2022-12-01T04:30:26.173Z,25.90
2022-12-01T04:32:52.898Z,25.35
2022-12-01T04:35:22.027Z,25.42
2022-12-01T04:37:50.894Z,24.02
2022-12-01T04:40:21.602Z,24.63
2022-12-01T04:42:50.732Z,23.80
2022-12-01T04:45:17.384Z,24.85
2022-12-01T04:47:44.055Z,25.27
2022-12-01T04:50:11.818Z,24.13
2022-12-01T04:52:38.440Z,22.65
2022-12-01T04:55:08.442Z,23.05
2022-12-01T04:57:35.134Z,23.80
2022-12-01T05:00:12.911Z,22.23
2022-12-01T05:02:43.566Z,25.25
2022-12-01T05:05:11.394Z,24.25
2022-12-01T05:07:40.833Z,22.50
2022-12-01T05:10:08.359Z,25.48
2022-12-01T05:12:34.994Z,24.00
2022-12-01T05:15:01.612Z,23.27
2022-12-01T05:17:37.267Z,23.38
2022-12-01T05:23:10.819Z,23.90
2022-12-01T05:25:39.103Z,23.55
2022-12-01T05:28:06.553Z,25.38
2022-12-01T05:30:33.380Z,24.60
2022-12-01T05:33:00.152Z,24.65
2022-12-01T05:35:27.103Z,24.65
2022-12-01T05:37:56.115Z,23.30
2022-12-01T05:40:22.820Z,24.60
2022-12-01T05:42:51.871Z,23.23
2022-12-01T05:45:20.691Z,24.85
2022-12-01T05:47:49.878Z,24.73
2022-12-01T05:50:18.946Z,22.65
2022-12-01T05:52:45.597Z,24.23
2022-12-01T05:55:12.328Z,23.92
2022-12-01T05:57:39.010Z,23.92
2022-12-01T06:00:08.881Z,22.10
2022-12-01T06:02:40.247Z,22.80
2022-12-01T06:05:10.055Z,22.75
2022-12-01T06:07:36.763Z,24.52
2022-12-01T06:10:06.802Z,26.98
2022-12-01T06:12:38.256Z,23.02
2022-12-01T06:15:06.690Z,25.45
2022-12-01T06:17:40.181Z,24.45
2022-12-01T06:20:08.459Z,24.42
2022-12-01T06:22:37.325Z,24.67
2022-12-01T06:25:04.573Z,24.42
2022-12-01T06:27:33.599Z,24.25
2022-12-01T06:30:00.449Z,24.38
2022-12-01T06:32:29.568Z,24.10
2022-12-01T06:34:56.224Z,24.65
2022-12-01T06:37:22.946Z,23.52
2022-12-01T06:39:53.958Z,24.30
2022-12-01T06:42:23.461Z,24.35
2022-12-01T06:44:50.196Z,23.52
2022-12-01T06:47:16.910Z,22.23
2022-12-01T06:49:43.991Z,22.55
2022-12-01T06:52:10.655Z,22.98
2022-12-01T06:54:37.623Z,22.63
2022-12-01T06:57:04.502Z,23.42
2022-12-01T06:59:38.851Z,22.33
2022-12-01T07:02:10.925Z,22.40
2022-12-01T07:04:40.189Z,19.05
2022-12-01T07:07:09.098Z,21.13
2022-12-01T07:09:35.728Z,22.00
2022-12-01T07:12:04.795Z,20.65
2022-12-01T07:14:34.398Z,21.88
2022-12-01T07:17:01.178Z,20.77
2022-12-01T07:19:28.346Z,21.30
2022-12-01T07:21:55.074Z,19.00
2022-12-01T07:24:21.711Z,20.25
2022-12-01T07:26:50.514Z,20.08
2022-12-01T07:29:19.696Z,20.20
2022-12-01T07:31:48.554Z,20.90
2022-12-01T07:34:19.918Z,17.85
2022-12-01T07:36:48.724Z,18.63
2022-12-01T07:39:15.649Z,19.25
2022-12-01T07:41:42.326Z,18.95
2022-12-01T07:44:11.110Z,19.45
2022-12-01T07:46:40.718Z,19.08
2022-12-01T07:49:08.419Z,18.42
2022-12-01T07:51:37.256Z,19.25
2022-12-01T07:54:08.194Z,18.42
2022-12-01T07:56:37.535Z,18.27
2022-12-01T07:59:04.251Z,18.45
2022-12-01T08:01:33.352Z,18.98
2022-12-01T08:04:02.877Z,19.38
2022-12-01T08:06:31.820Z,17.55
2022-12-01T08:09:00.804Z,18.98
2022-12-01T08:11:29.802Z,19.33
2022-12-01T08:13:57.248Z,20.05
2022-12-01T08:16:30.809Z,18.40
2022-12-01T08:18:59.917Z,18.52
2022-12-01T08:21:28.849Z,18.30
2022-12-01T08:23:58.410Z,19.63
2022-12-01T08:26:26.323Z,19.90
2022-12-01T08:29:00.936Z,20.33
2022-12-01T08:31:32.153Z,20.30
2022-12-01T08:33:59.225Z,19.63
2022-12-01T08:36:26.181Z,19.65
2022-12-01T08:38:54.491Z,20.25
2022-12-01T08:41:24.826Z,20.55
2022-12-01T08:44:00.357Z,19.88
2022-12-01T08:46:31.091Z,20.13
2022-12-01T08:49:00.758Z,19.05
2022-12-01T08:51:27.608Z,20.25
2022-12-01T08:53:58.470Z,17.63
2022-12-01T08:56:25.150Z,19.15
2022-12-01T08:58:53.266Z,19.73
2022-12-01T09:01:20.612Z,19.15
2022-12-01T09:03:47.477Z,19.35
2022-12-01T09:06:17.291Z,18.63
2022-12-01T09:08:44.339Z,17.55
2022-12-01T09:11:14.426Z,19.52
2022-12-01T09:13:42.125Z,17.50
2022-12-01T09:16:17.370Z,19.30
2022-12-01T09:18:48.436Z,19.67
2022-12-01T09:21:21.871Z,17.08
2022-12-01T09:23:51.689Z,18.40
2022-12-01T09:26:19.641Z,17.38
2022-12-01T09:28:49.923Z,17.13
2022-12-01T09:31:18.347Z,17.55
2022-12-01T09:33:45.466Z,17.77
2022-12-01T09:36:12.394Z,16.70
2022-12-01T09:38:39.669Z,17.08
2022-12-01T09:41:17.803Z,17.17
2022-12-01T09:43:52.098Z,18.30
2022-12-01T09:46:24.365Z,17.73
2022-12-01T09:48:58.362Z,18.38
2022-12-01T09:51:30.998Z,16.50
2022-12-01T09:53:59.677Z,15.88
2022-12-01T09:56:34.019Z,15.90
2022-12-01T09:59:02.794Z,16.92
2022-12-01T10:01:43.108Z,15.88
2022-12-01T10:04:22.605Z,16.80
2022-12-01T10:07:01.946Z,15.98
2022-12-01T10:09:41.543Z,15.23
2022-12-01T10:12:20.144Z,15.55
2022-12-01T10:14:50.494Z,15.63
2022-12-01T10:17:47.640Z,16.08
2022-12-01T10:20:35.558Z,15.30
2022-12-01T10:23:27.723Z,18.10
2022-12-01T10:26:06.011Z,15.77
2022-12-01T10:28:50.331Z,15.40
2022-12-01T10:31:36.615Z,14.52
2022-12-01T10:34:08.091Z,14.07
2022-12-01T10:36:37.200Z,14.32
2022-12-01T10:39:07.013Z,14.32
2022-12-01T10:41:36.951Z,14.20
2022-12-01T10:44:05.846Z,13.82
2022-12-01T10:46:32.533Z,15.43
2022-12-01T10:49:07.365Z,14.50
2022-12-01T10:51:56.555Z,13.97
2022-12-01T10:54:32.238Z,13.35
2022-12-01T10:59:38.565Z,14.98
2022-12-01T11:02:14.890Z,14.45
2022-12-01T11:05:06.314Z,13.10
2022-12-01T11:07:37.175Z,12.40
2022-12-01T11:10:39.323Z,12.70
2022-12-01T11:13:22.651Z,11.07
2022-12-01T11:15:52.952Z,12.77
2022-12-01T11:18:24.274Z,11.15
2022-12-01T11:21:09.638Z,12.43
2022-12-01T11:23:46.247Z,12.60
2022-12-01T11:26:15.617Z,11.05
2022-12-01T11:28:56.133Z,13.35
2022-12-01T11:31:36.697Z,14.38
2022-12-01T11:34:03.789Z,13.50
2022-12-01T11:36:44.400Z,14.95
2022-12-01T11:39:29.092Z,14.13
2022-12-01T11:41:59.832Z,15.15
2022-12-01T11:47:24.549Z,14.60
2022-12-01T11:50:01.339Z,13.82
2022-12-01T11:52:34.666Z,14.43
2022-12-01T11:55:24.486Z,13.15
2022-12-01T11:58:03.875Z,12.60
2022-12-01T12:00:54.207Z,10.80
2022-12-01T12:03:38.841Z,9.90
2022-12-01T12:09:33.361Z,11.00
2022-12-01T12:12:27.267Z,12.32
2022-12-01T12:15:16.746Z,13.55
2022-12-01T12:17:55.843Z,13.85
2022-12-01T12:20:53.347Z,14.30
2022-12-01T12:23:45.436Z,13.82
2022-12-01T12:26:19.783Z,15.50
2022-12-01T12:28:55.044Z,15.30
2022-12-01T12:31:24.498Z,15.77
2022-12-01T12:34:02.872Z,14.63
2022-12-01T12:36:41.805Z,16.35
2022-12-01T12:39:24.299Z,15.68
2022-12-01T12:41:59.750Z,16.85
2022-12-01T12:44:45.482Z,16.42
2022-12-01T12:47:24.023Z,17.33
2022-12-01T12:50:24.906Z,19.02
2022-12-01T12:52:56.936Z,19.20
2022-12-01T12:55:30.247Z,19.33
2022-12-01T12:58:13.213Z,20.40
2022-12-01T13:00:46.687Z,19.95
2022-12-01T13:03:21.839Z,18.88
2022-12-01T13:06:01.022Z,19.15
2022-12-01T13:08:33.740Z,18.38
2022-12-01T13:11:22.238Z,19.75
2022-12-01T13:14:07.307Z,19.92
2022-12-01T13:16:37.947Z,20.90
2022-12-01T13:19:11.405Z,20.35
2022-12-01T13:21:43.081Z,20.83
2022-12-01T13:24:21.334Z,21.48
2022-12-01T13:27:11.400Z,20.90
2022-12-01T13:29:47.622Z,20.23
2022-12-01T13:32:36.906Z,19.60
2022-12-01T13:36:01.416Z,19.10
2022-12-01T13:38:37.424Z,18.65
2022-12-01T13:41:19.174Z,18.98
2022-12-01T13:44:22.680Z,19.02
2022-12-01T13:46:51.685Z,18.35
2022-12-01T13:49:47.484Z,20.40
2022-12-01T13:52:25.744Z,18.40
2022-12-01T13:55:07.871Z,18.83
2022-12-01T13:57:34.600Z,21.30
2022-12-01T14:00:01.279Z,21.58
2022-12-01T14:02:32.677Z,20.80
2022-12-01T14:05:24.434Z,19.50
2022-12-01T14:07:52.473Z,20.13
2022-12-01T14:10:35.101Z,20.20
2022-12-01T14:13:05.584Z,21.55
2022-12-01T14:15:42.277Z,20.75
2022-12-01T14:18:18.392Z,20.85
2022-12-01T14:20:50.020Z,19.60
2022-12-01T14:23:19.244Z,19.90
2022-12-01T14:26:02.647Z,20.02
2022-12-01T14:29:03.013Z,20.90
2022-12-01T14:31:32.732Z,19.83
2022-12-01T14:34:19.233Z,20.67
2022-12-01T14:36:54.488Z,20.73
2022-12-01T14:39:31.793Z,19.95
2022-12-01T14:42:03.448Z,19.20
2022-12-01T14:44:33.294Z,21.33
2022-12-01T14:47:21.967Z,21.13
2022-12-01T14:50:11.754Z,20.95
2022-12-01T14:52:46.109Z,19.60
2022-12-01T14:55:24.960Z,21.30
2022-12-01T14:58:14.732Z,22.48
2022-12-01T15:00:54.623Z,22.10
2022-12-01T15:03:27.594Z,20.95
2022-12-01T15:05:57.335Z,23.48
2022-12-01T15:08:53.076Z,23.33
2022-12-01T15:11:23.910Z,23.52
2022-12-01T15:13:56.022Z,22.13
2022-12-01T15:16:25.664Z,21.60
2022-12-01T15:18:53.459Z,24.20
2022-12-01T15:21:22.583Z,22.85
2022-12-01T15:24:02.397Z,24.58
2022-12-01T15:26:46.353Z,23.95
2022-12-01T15:29:21.088Z,24.27
2022-12-01T15:31:51.093Z,23.33
2022-12-01T15:34:24.794Z,22.98
2022-12-01T15:36:53.367Z,22.73
2022-12-01T15:39:25.883Z,20.17
2022-12-01T15:41:56.039Z,19.65
2022-12-01T15:44:35.787Z,19.67
2022-12-01T15:47:32.970Z,19.08
2022-12-01T15:49:59.901Z,17.67
2022-12-01T15:52:26.644Z,18.02
2022-12-01T15:54:53.426Z,18.48
2022-12-01T15:57:21.914Z,18.02
2022-12-01T15:59:55.014Z,19.15
2022-12-01T16:02:25.071Z,18.80
2022-12-01T16:05:18.297Z,18.17
2022-12-01T16:10:36.824Z,19.13
2022-12-01T16:13:41.209Z,19.67
2022-12-01T16:16:33.671Z,18.88
2022-12-01T16:19:04.175Z,19.73
2022-12-01T16:21:44.885Z,20.27
2022-12-01T16:24:21.023Z,19.23
2022-12-01T16:26:48.796Z,17.80
2022-12-01T16:29:49.936Z,18.80
2022-12-01T16:32:39.008Z,20.98
2022-12-01T16:35:20.143Z,20.95
2022-12-01T16:37:46.895Z,20.92
2022-12-01T16:40:14.174Z,20.55
2022-12-01T16:42:40.912Z,21.13
2022-12-01T16:45:10.217Z,22.23
2022-12-01T16:47:36.953Z,20.85
2022-12-01T16:50:03.970Z,22.23
2022-12-01T16:52:46.335Z,21.98
2022-12-01T16:55:31.899Z,23.23
2022-12-01T16:57:58.777Z,22.27
2022-12-01T17:00:25.752Z,21.85
2022-12-01T17:02:52.853Z,24.17
2022-12-01T17:05:19.813Z,22.10
2022-12-01T17:07:46.654Z,23.10
2022-12-01T17:10:16.445Z,21.73
2022-12-01T17:12:43.198Z,23.70
2022-12-01T17:15:10.793Z,23.60
2022-12-01T17:17:37.697Z,23.67
2022-12-01T17:20:05.993Z,25.05
2022-12-01T17:22:32.946Z,25.20
2022-12-01T17:24:59.689Z,24.58
2022-12-01T17:27:27.678Z,25.58
2022-12-01T17:29:55.042Z,28.13
2022-12-01T17:32:21.828Z,27.08
2022-12-01T17:34:48.972Z,28.33
2022-12-01T17:37:20.649Z,26.67
2022-12-01T17:39:47.628Z,27.25
2022-12-01T17:42:16.776Z,27.73
2022-12-01T17:44:43.571Z,28.05
2022-12-01T17:47:10.489Z,27.98
2022-12-01T17:49:37.515Z,29.00
2022-12-01T17:52:05.521Z,27.33
2022-12-01T17:54:32.660Z,28.08
2022-12-01T17:56:59.444Z,28.13
2022-12-01T17:59:26.338Z,28.05
2022-12-01T18:01:53.072Z,29.23
2022-12-01T18:04:19.909Z,29.65
2022-12-01T18:06:50.780Z,28.88
2022-12-01T18:09:21.724Z,27.33
2022-12-01T18:11:48.621Z,28.98
2022-12-01T18:14:17.792Z,27.77
2022-12-01T18:16:45.095Z,28.05
2022-12-01T18:19:12.661Z,27.77
2022-12-01T18:21:39.939Z,26.25
2022-12-01T18:24:10.256Z,28.23
2022-12-01T18:26:39.984Z,28.77
2022-12-01T18:29:12.016Z,31.38
2022-12-01T18:31:39.038Z,33.65
2022-12-01T18:34:10.566Z,34.03
2022-12-01T18:36:40.693Z,32.67
2022-12-01T18:39:09.240Z,33.17
2022-12-01T18:41:36.475Z,32.78
2022-12-01T18:44:08.392Z,34.25
2022-12-01T18:46:35.320Z,33.70
2022-12-01T18:49:03.103Z,34.15
2022-12-01T18:51:34.852Z,33.97
2022-12-01T18:54:03.572Z,34.00
2022-12-01T18:56:30.814Z,30.10
2022-12-01T18:59:03.208Z,30.60
2022-12-01T19:01:32.672Z,28.80
2022-12-01T19:04:02.290Z,29.45
2022-12-01T19:06:29.863Z,29.00
2022-12-01T19:09:00.275Z,26.70
2022-12-01T19:11:27.917Z,24.80
2022-12-01T19:13:56.803Z,25.73
2022-12-01T19:16:26.127Z,25.60
2022-12-01T19:18:55.385Z,23.65
2022-12-01T19:21:24.735Z,24.58
2022-12-01T19:23:53.119Z,23.92
2022-12-01T19:26:21.840Z,23.42
2022-12-01T19:28:51.416Z,23.52
2022-12-01T19:31:25.763Z,24.33
2022-12-01T19:33:53.927Z,25.00
2022-12-01T19:36:27.292Z,24.77
2022-12-01T19:38:57.502Z,25.70
2022-12-01T19:41:26.592Z,25.27
2022-12-01T19:43:55.281Z,24.55
2022-12-01T19:46:24.000Z,25.33
2022-12-01T19:48:58.761Z,22.63
2022-12-01T19:51:31.391Z,21.77
2022-12-01T19:53:58.677Z,19.27
2022-12-01T19:56:28.400Z,18.13
2022-12-01T19:58:56.987Z,17.15
2022-12-01T20:01:25.113Z,19.17
2022-12-01T20:03:56.347Z,17.65
2022-12-01T20:06:26.064Z,17.73
2022-12-01T20:08:56.329Z,15.93
2022-12-01T20:11:24.751Z,15.98
2022-12-01T20:13:53.906Z,15.77
2022-12-01T20:16:27.891Z,14.85
2022-12-01T20:18:56.374Z,15.52
2022-12-01T20:21:27.816Z,17.52
2022-12-01T20:24:00.279Z,16.75
2022-12-01T20:26:30.841Z,15.82
2022-12-01T20:29:13.773Z,15.70
2022-12-01T20:31:41.309Z,15.15
2022-12-01T20:34:26.560Z,14.50
2022-12-01T20:37:01.012Z,15.77
2022-12-01T20:39:31.728Z,15.68
2022-12-01T20:41:58.802Z,15.98
2022-12-01T20:44:25.864Z,16.60
2022-12-01T20:46:54.820Z,16.10
2022-12-01T20:49:24.230Z,16.25
2022-12-01T20:51:50.974Z,15.77
2022-12-01T20:54:27.988Z,16.00
2022-12-01T20:56:58.035Z,15.93
2022-12-01T20:59:29.041Z,16.13
2022-12-01T21:02:00.267Z,14.77
2022-12-01T21:04:32.526Z,15.55
2022-12-01T21:07:03.799Z,16.60
2022-12-01T21:09:31.713Z,15.48
2022-12-01T21:12:17.996Z,16.58
2022-12-01T21:15:15.083Z,14.10
2022-12-01T21:17:57.780Z,16.77
2022-12-01T21:20:33.062Z,16.23
2022-12-01T21:23:17.678Z,16.08
2022-12-01T21:25:47.890Z,16.00
2022-12-01T21:28:27.116Z,15.57
2022-12-01T21:31:12.956Z,17.13
2022-12-01T21:33:53.612Z,16.63
2022-12-01T21:36:24.594Z,17.48
2022-12-01T21:38:59.544Z,16.60
2022-12-01T21:41:29.129Z,16.08
2022-12-01T21:44:26.636Z,18.00
2022-12-01T21:47:04.965Z,17.10
2022-12-01T21:49:41.601Z,17.48
2022-12-01T21:52:33.998Z,16.80
2022-12-01T21:55:23.534Z,18.40
2022-12-01T21:57:55.862Z,17.23
2022-12-01T22:00:35.635Z,16.23
2022-12-01T22:03:10.435Z,18.23
2022-12-01T22:05:40.916Z,17.03
2022-12-01T22:08:36.225Z,18.30
2022-12-01T22:11:12.063Z,18.45
2022-12-01T22:13:48.423Z,19.45
2022-12-01T22:16:42.643Z,19.55
2022-12-01T22:19:15.399Z,20.15
2022-12-01T22:21:46.687Z,17.77
2022-12-01T22:24:34.028Z,17.15
2022-12-01T22:27:14.153Z,19.45
2022-12-01T22:29:46.905Z,19.58
2022-12-01T22:32:13.519Z,18.60
2022-12-01T22:34:51.279Z,19.05
2022-12-01T22:37:43.014Z,21.27
2022-12-01T22:40:45.413Z,19.08
2022-12-01T22:43:17.958Z,19.55
2022-12-01T22:45:48.901Z,18.35
2022-12-01T22:48:27.752Z,17.55
2022-12-01T22:50:55.285Z,19.67
2022-12-01T22:53:29.246Z,19.60
2022-12-01T22:56:00.392Z,19.38
2022-12-01T22:58:38.303Z,19.80
2022-12-01T23:01:20.482Z,20.52
2022-12-01T23:03:48.321Z,20.05
2022-12-01T23:06:52.935Z,19.67
2022-12-01T23:09:24.036Z,19.13
2022-12-01T23:12:02.016Z,20.15
2022-12-01T23:14:29.053Z,19.73
2022-12-01T23:17:14.851Z,19.73
2022-12-01T23:19:43.655Z,19.98
2022-12-01T23:22:11.242Z,19.80
2022-12-01T23:24:39.285Z,19.83
2022-12-01T23:27:08.759Z,17.38
2022-12-01T23:29:38.601Z,19.98
2022-12-01T23:32:05.503Z,19.73
2022-12-01T23:34:36.794Z,18.55
2022-12-01T23:37:03.647Z,17.15
2022-12-01T23:39:35.597Z,20.15
2022-12-01T23:42:03.358Z,19.92
2022-12-01T23:44:40.766Z,18.52
2022-12-01T23:47:28.399Z,18.15
2022-12-01T23:50:03.001Z,18.42
2022-12-01T23:52:36.389Z,18.10
2022-12-01T23:55:14.481Z,18.00
2022-12-01T23:57:41.156Z,18.23
